createdAt,value
2023-02-19T00:03:08.550Z,77.71
2023-02-19T00:08:10.197Z,78.65
2023-02-19T00:13:11.844Z,78.13
2023-02-19T00:18:13.684Z,77.84
2023-02-19T00:23:15.460Z,78.46
2023-02-19T00:28:17.097Z,79.25
2023-02-19T00:33:18.755Z,79.13
2023-02-19T00:38:20.381Z,79.33
2023-02-19T00:43:22.135Z,80.70
2023-02-19T00:48:23.725Z,80.22
2023-02-19T00:53:25.582Z,80.12
2023-02-19T00:58:27.308Z,80.73
2023-02-19T01:03:29.308Z,80.81
2023-02-19T01:08:32.087Z,81.03
2023-02-19T01:13:36.627Z,80.83
2023-02-19T01:18:38.997Z,80.77
2023-02-19T01:23:40.966Z,80.69
2023-02-19T01:28:43.030Z,80.77
2023-02-19T01:33:50.054Z,79.94
2023-02-19T01:38:51.734Z,79.98
2023-02-19T01:44:00.670Z,79.81
2023-02-19T01:49:28.625Z,79.67
2023-02-19T01:54:35.229Z,79.41
2023-02-19T01:59:38.352Z,79.32
2023-02-19T02:04:40.181Z,79.72
2023-02-19T02:10:01.043Z,79.88
2023-02-19T02:15:03.846Z,79.93
2023-02-19T02:20:36.062Z,79.77
2023-02-19T02:25:52.889Z,79.83
2023-02-19T02:30:59.479Z,79.83
2023-02-19T02:36:07.668Z,79.98
2023-02-19T02:41:10.389Z,80.05
2023-02-19T02:46:17.426Z,79.91
2023-02-19T02:51:29.145Z,79.26
2023-02-19T02:56:50.067Z,79.43
2023-02-19T03:02:13.912Z,79.91
2023-02-19T03:07:15.611Z,79.46
2023-02-19T03:12:38.170Z,80.89
2023-02-19T03:18:05.069Z,82.00
2023-02-19T03:23:09.158Z,83.51
2023-02-19T03:28:16.011Z,84.00
2023-02-19T03:33:28.484Z,84.87
2023-02-19T03:38:37.771Z,85.84
2023-02-19T03:43:54.044Z,86.77
2023-02-19T03:49:03.969Z,86.31
2023-02-19T03:54:15.582Z,86.06
2023-02-19T03:59:32.249Z,86.28
2023-02-19T04:04:50.921Z,86.17
2023-02-19T04:09:54.573Z,87.48
2023-02-19T04:15:10.198Z,87.36
2023-02-19T04:20:13.846Z,89.37
2023-02-19T04:25:15.504Z,88.42
2023-02-19T04:30:17.867Z,87.82
2023-02-19T04:35:19.515Z,89.06
2023-02-19T04:40:21.256Z,88.82
2023-02-19T04:45:22.883Z,89.21
2023-02-19T04:50:25.008Z,88.48
2023-02-19T04:55:26.705Z,89.77
2023-02-19T05:00:28.382Z,89.87
2023-02-19T05:05:29.969Z,91.16
2023-02-19T05:10:31.839Z,91.91
2023-02-19T05:15:33.792Z,91.52
2023-02-19T05:20:36.119Z,90.53
2023-02-19T05:25:38.128Z,91.15
2023-02-19T05:30:39.961Z,91.45
2023-02-19T05:35:46.695Z,93.81
2023-02-19T05:40:48.754Z,95.56
2023-02-19T05:45:50.321Z,96.50
2023-02-19T05:50:51.989Z,96.84
2023-02-19T05:55:53.615Z,97.07
2023-02-19T06:00:55.980Z,97.08
2023-02-19T06:05:57.599Z,96.57
2023-02-19T06:10:59.204Z,96.19
2023-02-19T06:16:04.060Z,95.91
2023-02-19T06:21:08.274Z,95.64
2023-02-19T06:26:16.094Z,96.21
2023-02-19T06:31:19.673Z,95.61
2023-02-19T06:36:22.686Z,95.73
2023-02-19T06:41:24.302Z,95.72
2023-02-19T06:46:26.237Z,95.51
2023-02-19T06:51:29.712Z,94.80
2023-02-19T06:56:31.622Z,93.80
2023-02-19T07:01:34.925Z,93.15
2023-02-19T07:06:37.508Z,92.84
2023-02-19T07:11:40.261Z,91.38
2023-02-19T07:16:42.382Z,89.27
2023-02-19T07:21:44.017Z,88.73
2023-02-19T07:26:45.812Z,87.68
2023-02-19T07:31:47.481Z,87.08
2023-02-19T07:36:49.157Z,86.81
2023-02-19T07:41:50.787Z,85.87
2023-02-19T07:47:01.146Z,85.48
2023-02-19T07:52:02.825Z,84.80
2023-02-19T07:57:04.443Z,84.95
2023-02-19T08:02:34.527Z,84.37
2023-02-19T08:07:37.624Z,84.72
2023-02-19T08:12:57.561Z,84.94
2023-02-19T08:17:59.184Z,84.13
2023-02-19T08:23:00.821Z,83.91
2023-02-19T08:28:02.702Z,83.71
2023-02-19T08:33:06.634Z,83.47
2023-02-19T08:38:09.852Z,83.64
2023-02-19T08:43:16.158Z,83.71
2023-02-19T08:48:17.775Z,82.39
2023-02-19T08:53:19.436Z,82.77
2023-02-19T08:58:21.734Z,83.61
2023-02-19T09:03:23.350Z,83.80
2023-02-19T09:08:24.976Z,82.87
2023-02-19T09:13:26.899Z,85.07
2023-02-19T09:18:28.572Z,86.60
2023-02-19T09:23:32.574Z,86.65
2023-02-19T09:28:34.228Z,85.08
2023-02-19T09:33:36.066Z,84.23
2023-02-19T09:38:37.747Z,81.39
2023-02-19T09:43:39.852Z,80.72
2023-02-19T09:48:42.056Z,80.79
2023-02-19T09:53:47.842Z,80.96
2023-02-19T09:58:55.326Z,80.58
2023-02-19T10:03:57.685Z,77.75
2023-02-19T10:09:23.629Z,77.83
2023-02-19T10:19:43.566Z,74.41
2023-02-19T10:24:49.824Z,75.30
2023-02-19T10:29:51.645Z,71.57
2023-02-19T10:35:16.868Z,72.04
2023-02-19T10:40:21.619Z,68.94
2023-02-19T10:45:30.357Z,67.43
2023-02-19T10:50:39.249Z,67.73
2023-02-19T10:55:41.221Z,67.36
2023-02-19T11:00:42.841Z,67.39
2023-02-19T11:06:02.055Z,65.23
2023-02-19T11:11:03.716Z,65.63
2023-02-19T11:16:05.828Z,64.40
2023-02-19T11:21:08.561Z,65.44
2023-02-19T11:26:21.538Z,62.41
2023-02-19T11:31:27.555Z,62.90
2023-02-19T11:36:34.694Z,62.96
2023-02-19T11:42:04.415Z,62.48
2023-02-19T11:47:27.970Z,61.85
2023-02-19T11:53:00.426Z,61.09
2023-02-19T11:58:36.078Z,62.35
2023-02-19T12:03:50.786Z,62.92
2023-02-19T12:08:55.107Z,63.61
2023-02-19T12:14:22.422Z,70.34
2023-02-19T12:19:43.017Z,73.79
2023-02-19T12:24:47.593Z,76.89
2023-02-19T12:30:14.650Z,76.03
2023-02-19T12:35:25.837Z,76.14
2023-02-19T12:40:38.797Z,76.13
2023-02-19T12:46:01.943Z,74.40
2023-02-19T12:51:18.008Z,74.39
2023-02-19T12:56:48.824Z,75.09
2023-02-19T13:01:53.784Z,72.93
2023-02-19T13:07:06.066Z,73.86
2023-02-19T13:12:14.065Z,70.99
2023-02-19T13:17:45.029Z,71.08
2023-02-19T13:23:11.221Z,71.59
2023-02-19T13:28:38.617Z,71.95
2023-02-19T13:33:54.302Z,70.01
2023-02-19T13:38:57.500Z,66.84
2023-02-19T13:44:04.897Z,65.08
2023-02-19T13:49:37.259Z,63.60
2023-02-19T13:54:40.363Z,63.58
2023-02-19T13:59:44.993Z,63.94
2023-02-19T14:05:01.478Z,65.61
2023-02-19T14:10:08.694Z,67.40
2023-02-19T14:15:52.584Z,80.55
2023-02-19T14:21:07.736Z,84.84
2023-02-19T14:26:09.692Z,86.49
2023-02-19T14:31:19.267Z,87.45
2023-02-19T14:36:44.239Z,88.65
2023-02-19T14:41:51.058Z,88.66
2023-02-19T14:47:13.788Z,89.65
2023-02-19T14:52:30.281Z,89.80
2023-02-19T14:57:38.037Z,90.89
2023-02-19T15:02:43.457Z,90.13
2023-02-19T15:07:45.752Z,89.50
2023-02-19T15:13:01.291Z,89.29
2023-02-19T15:18:05.442Z,88.12
2023-02-19T15:23:08.309Z,87.84
2023-02-19T15:28:25.188Z,88.12
2023-02-19T15:33:28.260Z,87.55
2023-02-19T15:38:30.134Z,86.49
2023-02-19T15:43:39.927Z,90.08
2023-02-19T15:48:47.615Z,90.65
2023-02-19T15:53:53.524Z,89.90
2023-02-19T15:59:01.247Z,88.32
2023-02-19T16:04:04.255Z,89.27
2023-02-19T16:09:06.935Z,91.64
2023-02-19T16:14:29.364Z,91.93
2023-02-19T16:19:42.593Z,91.27
2023-02-19T16:24:46.832Z,91.60
2023-02-19T16:29:51.502Z,91.68
2023-02-19T16:34:53.301Z,91.24
2023-02-19T16:40:17.434Z,91.59
2023-02-19T16:45:19.161Z,90.84
2023-02-19T16:50:23.847Z,90.24
2023-02-19T16:55:26.670Z,90.28
2023-02-19T17:00:31.708Z,89.95
2023-02-19T17:05:33.720Z,89.52
2023-02-19T17:10:35.540Z,89.09
2023-02-19T17:15:37.153Z,89.17
2023-02-19T17:20:40.579Z,89.30
2023-02-19T17:25:42.284Z,89.50
2023-02-19T17:30:44.010Z,89.16
2023-02-19T17:35:45.749Z,89.42
2023-02-19T17:40:47.609Z,89.36
2023-02-19T17:45:49.284Z,88.89
2023-02-19T17:50:52.222Z,89.89
2023-02-19T17:55:55.855Z,91.29
2023-02-19T18:00:57.578Z,91.63
2023-02-19T18:05:59.415Z,91.94
2023-02-19T18:11:01.077Z,92.01
2023-02-19T18:16:02.730Z,90.99
2023-02-19T18:21:08.597Z,91.18
2023-02-19T18:26:11.454Z,90.56
2023-02-19T18:31:13.414Z,90.18
2023-02-19T18:36:15.460Z,90.04
2023-02-19T18:41:20.304Z,90.47
2023-02-19T18:46:22.267Z,89.73
2023-02-19T18:51:24.342Z,89.79
2023-02-19T18:56:26.209Z,90.10
2023-02-19T19:01:27.854Z,90.47
2023-02-19T19:06:29.541Z,90.59
2023-02-19T19:11:31.784Z,90.70
2023-02-19T19:16:33.714Z,90.49
2023-02-19T19:21:35.315Z,90.86
2023-02-19T19:26:44.670Z,90.28
2023-02-19T19:31:46.751Z,90.93
2023-02-19T19:36:48.804Z,91.18
2023-02-19T19:41:54.949Z,90.15
2023-02-19T19:46:56.817Z,88.10
2023-02-19T19:52:01.116Z,85.69
2023-02-19T19:57:03.092Z,84.51
2023-02-19T20:02:06.164Z,83.07
2023-02-19T20:07:08.041Z,83.79
2023-02-19T20:12:10.882Z,83.56
2023-02-19T20:17:13.020Z,83.50
2023-02-19T20:22:14.770Z,83.83
2023-02-19T20:27:16.587Z,85.16
2023-02-19T20:32:21.068Z,86.65
2023-02-19T20:37:22.921Z,89.40
2023-02-19T20:42:24.709Z,87.46
2023-02-19T20:47:27.500Z,87.71
2023-02-19T20:52:29.093Z,87.96
2023-02-19T20:57:30.874Z,86.85
2023-02-19T21:02:32.600Z,87.11
2023-02-19T21:07:34.239Z,87.88
2023-02-19T21:12:36.527Z,88.76
2023-02-19T21:17:38.312Z,87.57
2023-02-19T21:22:39.902Z,86.72
2023-02-19T21:27:41.509Z,86.18
2023-02-19T21:32:43.171Z,85.94
2023-02-19T21:37:44.849Z,85.34
2023-02-19T21:42:46.569Z,84.74
2023-02-19T21:47:51.996Z,84.08
2023-02-19T21:52:53.676Z,82.67
2023-02-19T21:57:55.249Z,83.01
2023-02-19T22:02:56.940Z,82.41
2023-02-19T22:08:00.044Z,80.50
2023-02-19T22:13:01.713Z,81.47
2023-02-19T22:18:03.672Z,81.76
2023-02-19T22:23:06.043Z,82.30
2023-02-19T22:28:07.885Z,83.45
2023-02-19T22:33:09.837Z,84.44
2023-02-19T22:38:11.729Z,85.35
2023-02-19T22:43:17.273Z,84.69
2023-02-19T22:48:29.448Z,84.38
2023-02-19T22:53:31.964Z,84.96
2023-02-19T22:58:33.563Z,84.86
2023-02-19T23:03:35.257Z,84.95
2023-02-19T23:08:37.077Z,85.61
2023-02-19T23:13:42.138Z,85.23
2023-02-19T23:18:43.984Z,84.71
2023-02-19T23:23:46.225Z,83.83
2023-02-19T23:28:48.155Z,83.41
2023-02-19T23:33:50.019Z,83.68
2023-02-19T23:38:51.970Z,84.05
2023-02-19T23:43:54.401Z,82.95
2023-02-19T23:48:56.280Z,82.65
2023-02-19T23:53:57.916Z,81.82
2023-02-19T23:58:59.751Z,81.44
